Time;durP1;ratioP1;P1;durP2;ratioP2;P2;SDS_P1;SDS_P2;PMS_P1;PMS_P2;Temp;Humidity;BMP_temperature;BMP_pressure;BME280_temperature;BME280_humidity;BME280_pressure;Samples;Min_cycle;Max_cycle;Signal;HPM_P1;HPM_P2
2022/07/17 00:00:42;;;;;;;6.45;1.35;;;15.20;99.90;;;;;;5096840;28;20398;-75
2022/07/17 00:03:12;;;;;;;6.05;1.40;;;15.20;99.90;;;;;;5110238;27;20427;-75
2022/07/17 00:05:39;;;;;;;4.38;0.80;;;15.10;99.90;;;;;;5110200;28;20404;-75
2022/07/17 00:08:06;;;;;;;6.23;1.10;;;15.10;99.90;;;;;;5109386;28;20403;-75
2022/07/17 00:10:33;;;;;;;6.10;1.25;;;15.00;99.90;;;;;;5109133;28;20396;-75
2022/07/17 00:12:59;;;;;;;4.17;1.23;;;14.90;99.90;;;;;;5109280;28;20790;-75
2022/07/17 00:15:25;;;;;;;5.63;1.20;;;14.90;99.90;;;;;;5109399;28;20400;-75
2022/07/17 00:17:50;;;;;;;3.97;1.10;;;14.80;99.90;;;;;;5109557;28;20396;-74
2022/07/17 00:20:16;;;;;;;2.67;0.65;;;14.70;99.90;;;;;;5109504;28;20388;-75
2022/07/17 00:22:42;;;;;;;4.27;1.00;;;14.70;99.90;;;;;;5109759;28;20407;-75
2022/07/17 00:25:09;;;;;;;4.07;1.20;;;14.70;99.90;;;;;;5108605;28;20400;-75
2022/07/17 00:27:36;;;;;;;5.45;1.30;;;14.60;99.90;;;;;;5108822;28;20400;-75
2022/07/17 00:30:02;;;;;;;3.17;1.00;;;14.60;99.90;;;;;;5090632;28;20405;-75
2022/07/17 00:32:28;;;;;;;3.78;0.80;;;14.50;99.90;;;;;;5108805;28;20392;-75
2022/07/17 00:34:54;;;;;;;4.43;1.20;;;14.50;99.90;;;;;;5108627;28;20401;-75
2022/07/17 00:37:19;;;;;;;5.70;1.20;;;14.50;99.90;;;;;;5108665;28;20405;-75
2022/07/17 00:39:45;;;;;;;7.75;1.50;;;14.40;99.90;;;;;;5107925;28;20767;-75
2022/07/17 00:42:13;;;;;;;5.27;1.40;;;14.40;99.90;;;;;;5109136;28;20488;-75
2022/07/17 00:44:40;;;;;;;5.03;1.50;;;14.40;99.90;;;;;;5108161;28;20410;-75
2022/07/17 00:47:13;;;;;;;5.20;1.37;;;14.30;99.90;;;;;;5099915;28;20509;-75
2022/07/17 00:49:40;;;;;;;5.88;1.20;;;14.20;99.90;;;;;;5108893;28;20396;-75
2022/07/17 00:52:08;;;;;;;6.93;1.33;;;14.20;99.90;;;;;;5108790;28;20396;-75
2022/07/17 00:54:44;;;;;;;4.95;1.40;;;14.10;99.90;;;;;;5105534;28;20406;-74
2022/07/17 00:57:12;;;;;;;5.55;1.60;;;14.10;99.90;;;;;;5100019;28;20404;-75
2022/07/17 00:59:39;;;;;;;5.77;1.30;;;14.10;99.90;;;;;;5102334;28;20560;-75
2022/07/17 01:02:06;;;;;;;5.63;1.80;;;14.00;99.90;;;;;;5101287;28;20404;-75
2022/07/17 01:04:33;;;;;;;4.30;1.43;;;14.00;99.90;;;;;;5089337;28;20405;-74
2022/07/17 01:07:00;;;;;;;4.18;1.45;;;14.00;99.90;;;;;;5088183;28;20477;-75
2022/07/17 01:09:27;;;;;;;5.22;1.42;;;13.90;99.90;;;;;;5107758;28;21368;-75
2022/07/17 01:11:54;;;;;;;5.68;1.90;;;13.90;99.90;;;;;;5108812;28;20404;-75
2022/07/17 01:14:22;;;;;;;7.95;1.65;;;13.90;99.90;;;;;;5106831;28;20444;-75
2022/07/17 01:16:48;;;;;;;6.78;1.63;;;13.90;99.90;;;;;;5107921;28;20449;-75
2022/07/17 01:19:14;;;;;;;5.40;1.42;;;13.80;99.90;;;;;;5103381;28;20942;-75
2022/07/17 01:21:47;;;;;;;6.82;1.70;;;13.80;99.90;;;;;;5104567;27;20402;-75
2022/07/17 01:24:13;;;;;;;5.75;1.60;;;13.80;99.90;;;;;;5098979;28;20484;-75
2022/07/17 01:26:47;;;;;;;7.05;1.80;;;13.80;99.90;;;;;;5094212;27;20407;-75
2022/07/17 01:29:14;;;;;;;4.47;1.38;;;13.70;99.90;;;;;;5107634;28;20477;-75
2022/07/17 01:31:41;;;;;;;6.22;2.20;;;13.70;99.90;;;;;;5094542;28;20895;-75
2022/07/17 01:34:08;;;;;;;6.72;1.73;;;13.70;99.90;;;;;;5107800;28;20467;-75
2022/07/17 01:36:35;;;;;;;5.20;1.90;;;13.60;99.90;;;;;;5094111;28;20438;-75
2022/07/17 01:39:01;;;;;;;5.88;2.28;;;13.60;99.90;;;;;;5107724;28;20485;-75
2022/07/17 01:41:26;;;;;;;7.13;2.77;;;13.60;99.90;;;;;;5107551;28;20800;-75
2022/07/17 01:43:52;;;;;;;6.68;3.53;;;13.50;99.90;;;;;;5098774;28;20902;-74
2022/07/17 01:46:17;;;;;;;7.33;3.10;;;13.50;99.90;;;;;;5101087;28;20485;-75
2022/07/17 01:48:43;;;;;;;7.35;3.30;;;13.50;99.90;;;;;;5089991;28;20428;-75
2022/07/17 01:51:09;;;;;;;6.67;3.20;;;13.50;99.90;;;;;;5097968;28;20409;-75
2022/07/17 01:53:34;;;;;;;5.97;3.87;;;13.50;99.90;;;;;;5089675;28;20404;-75
2022/07/17 01:56:00;;;;;;;10.45;4.63;;;13.40;99.90;;;;;;5098970;28;20397;-75
2022/07/17 01:58:26;;;;;;;7.72;4.65;;;13.40;99.90;;;;;;5090017;28;20422;-75
2022/07/17 02:00:52;;;;;;;8.50;4.50;;;13.30;99.90;;;;;;5107959;28;20469;-74
2022/07/17 02:03:19;;;;;;;10.48;4.40;;;13.30;99.90;;;;;;5094513;28;20436;-75
2022/07/17 02:05:45;;;;;;;7.57;3.63;;;13.30;99.90;;;;;;5107098;28;20491;-75
2022/07/17 02:08:10;;;;;;;7.20;4.03;;;13.30;99.90;;;;;;5106307;28;20472;-75
2022/07/17 02:10:36;;;;;;;8.18;3.72;;;13.30;99.90;;;;;;5098910;28;20394;-74
2022/07/17 02:13:02;;;;;;;6.93;3.67;;;13.30;99.90;;;;;;5103245;28;20388;-75
2022/07/17 02:15:28;;;;;;;5.28;3.08;;;13.20;99.90;;;;;;5098787;28;20852;-75
2022/07/17 02:17:54;;;;;;;8.75;3.60;;;13.20;99.90;;;;;;5102353;28;20906;-75
2022/07/17 02:20:20;;;;;;;7.65;3.63;;;13.20;99.90;;;;;;5107733;28;20472;-74
2022/07/17 02:22:46;;;;;;;6.55;3.50;;;13.20;99.90;;;;;;5093705;28;20420;-75
2022/07/17 02:25:13;;;;;;;7.87;3.50;;;13.10;99.90;;;;;;5098861;28;20394;-75
2022/07/17 02:27:39;;;;;;;8.13;3.58;;;13.10;99.90;;;;;;5100377;28;20467;-75
2022/07/17 02:30:16;;;;;;;5.83;3.33;;;13.10;99.90;;;;;;5087511;28;20398;-75
2022/07/17 02:32:42;;;;;;;9.40;3.40;;;13.10;99.90;;;;;;5087737;28;20484;-75
2022/07/17 02:35:09;;;;;;;9.13;3.72;;;13.00;99.90;;;;;;5087570;28;20988;-75
2022/07/17 02:37:35;;;;;;;8.40;3.17;;;13.00;99.90;;;;;;5087409;28;20406;-75
2022/07/17 02:40:00;;;;;;;6.38;3.38;;;13.00;99.90;;;;;;5096976;28;20477;-74
2022/07/17 02:42:28;;;;;;;6.72;3.47;;;13.00;99.90;;;;;;5108192;28;20494;-75
2022/07/17 02:44:55;;;;;;;6.93;3.20;;;13.00;99.90;;;;;;5091772;28;20398;-75
2022/07/17 02:47:25;;;;;;;6.32;2.90;;;13.00;99.90;;;;;;5095040;28;20408;-74
2022/07/17 02:49:51;;;;;;;8.50;2.70;;;13.00;99.90;;;;;;5100555;28;20481;-75
2022/07/17 02:52:17;;;;;;;6.65;2.85;;;13.00;99.90;;;;;;5108573;28;20411;-75
2022/07/17 02:54:43;;;;;;;4.10;2.35;;;13.00;99.90;;;;;;5099670;28;20402;-75
2022/07/17 02:57:08;;;;;;;6.13;2.40;;;13.00;99.90;;;;;;5095668;28;20427;-75
2022/07/17 02:59:34;;;;;;;5.22;2.35;;;13.00;99.90;;;;;;5099683;28;20772;-74
2022/07/17 03:02:00;;;;;;;5.63;2.30;;;13.00;99.90;;;;;;5108781;28;21000;-75
2022/07/17 03:04:25;;;;;;;5.60;2.75;;;13.00;99.90;;;;;;5111283;28;20400;-75
2022/07/17 03:06:51;;;;;;;5.90;2.40;;;12.90;99.90;;;;;;5092079;28;20413;-75
2022/07/17 03:09:17;;;;;;;5.45;2.35;;;12.90;99.90;;;;;;5090582;28;20406;-75
2022/07/17 03:11:42;;;;;;;5.30;2.50;;;12.80;99.90;;;;;;5104479;28;20966;-74
2022/07/17 03:14:08;;;;;;;5.53;2.80;;;12.80;99.90;;;;;;5089921;28;20398;-75
2022/07/17 03:16:33;;;;;;;5.67;2.53;;;12.70;99.90;;;;;;5107843;28;20513;-75
2022/07/17 03:18:59;;;;;;;7.10;2.30;;;12.70;99.90;;;;;;5099292;28;20912;-74
2022/07/17 03:21:25;;;;;;;4.57;2.10;;;12.70;99.90;;;;;;5091383;28;20428;-75
2022/07/17 03:23:50;;;;;;;5.53;2.50;;;12.70;99.90;;;;;;5099687;28;20442;-74
2022/07/17 03:26:16;;;;;;;5.70;2.67;;;12.70;99.90;;;;;;5105611;28;20459;-74
2022/07/17 03:28:41;;;;;;;7.43;2.53;;;12.60;99.90;;;;;;5100083;28;20419;-74
2022/07/17 03:31:07;;;;;;;6.57;2.53;;;12.60;99.90;;;;;;5105707;28;20417;-75
2022/07/17 03:33:32;;;;;;;5.47;2.80;;;12.60;99.90;;;;;;5090238;28;20455;-75
2022/07/17 03:35:58;;;;;;;5.85;2.55;;;12.60;99.90;;;;;;5094007;28;20396;-75
2022/07/17 03:38:24;;;;;;;7.00;2.87;;;12.70;99.90;;;;;;5110304;28;20922;-75
2022/07/17 03:40:49;;;;;;;6.33;2.60;;;12.60;99.90;;;;;;5107039;28;20462;-74
2022/07/17 03:43:15;;;;;;;7.07;2.58;;;12.70;99.90;;;;;;5089472;28;20402;-75
2022/07/17 03:45:42;;;;;;;5.38;2.20;;;12.70;99.90;;;;;;5107120;28;20495;-74
2022/07/17 03:48:08;;;;;;;6.22;2.33;;;12.70;99.90;;;;;;5099548;28;20429;-75
2022/07/17 03:50:34;;;;;;;6.32;2.40;;;12.80;99.90;;;;;;5094393;28;20401;-75
2022/07/17 03:53:00;;;;;;;6.68;2.60;;;12.80;99.90;;;;;;5109539;28;20890;-75
2022/07/17 03:55:25;;;;;;;5.55;2.30;;;12.80;99.90;;;;;;5096356;28;20420;-74
2022/07/17 03:57:51;;;;;;;7.40;2.50;;;12.90;99.90;;;;;;5099496;28;20449;-74
2022/07/17 04:00:17;;;;;;;6.10;2.50;;;12.90;99.90;;;;;;5107341;28;20912;-75
2022/07/17 04:02:42;;;;;;;6.67;2.70;;;12.90;99.90;;;;;;5109983;28;20404;-75
2022/07/17 04:05:09;;;;;;;9.55;2.90;;;13.00;99.90;;;;;;5105424;28;20401;-75
2022/07/17 04:07:39;;;;;;;6.68;2.67;;;13.00;99.90;;;;;;5099334;28;20463;-74
2022/07/17 04:10:06;;;;;;;6.72;2.47;;;13.00;99.90;;;;;;5108625;27;20407;-74
2022/07/17 04:12:32;;;;;;;6.97;2.53;;;13.10;99.90;;;;;;5098594;28;20398;-75
2022/07/17 04:14:58;;;;;;;5.93;2.15;;;13.10;99.90;;;;;;5102570;28;20551;-74
2022/07/17 04:17:24;;;;;;;6.17;2.13;;;13.10;99.90;;;;;;5089141;28;20481;-74
2022/07/17 04:19:50;;;;;;;5.70;2.43;;;13.20;99.90;;;;;;5108136;28;20416;-74
2022/07/17 04:22:16;;;;;;;5.88;2.22;;;13.20;99.90;;;;;;5098271;28;20394;-75
2022/07/17 04:24:41;;;;;;;5.80;2.05;;;13.20;99.90;;;;;;5088634;28;20475;-75
2022/07/17 04:27:07;;;;;;;5.27;2.27;;;13.30;99.90;;;;;;5097543;28;20493;-74
2022/07/17 04:29:33;;;;;;;6.60;2.20;;;13.30;99.90;;;;;;5107040;28;20400;-75
2022/07/17 04:31:59;;;;;;;6.15;2.33;;;13.40;99.90;;;;;;5098545;28;20405;-75
2022/07/17 04:34:25;;;;;;;5.53;2.17;;;13.40;99.90;;;;;;5106280;28;20722;-75
2022/07/17 04:36:51;;;;;;;8.47;2.47;;;13.40;99.90;;;;;;5107910;28;20473;-74
2022/07/17 04:39:17;;;;;;;4.68;1.92;;;13.40;99.90;;;;;;5104771;28;20422;-75
2022/07/17 04:41:43;;;;;;;6.63;2.40;;;13.50;99.90;;;;;;5089359;28;20818;-75
2022/07/17 04:44:08;;;;;;;7.33;2.20;;;13.50;99.90;;;;;;5105927;28;20404;-75
2022/07/17 04:46:34;;;;;;;7.03;2.33;;;13.50;99.90;;;;;;5098485;28;20394;-75
2022/07/17 04:48:59;;;;;;;6.17;2.13;;;13.50;99.90;;;;;;5089555;28;20414;-74
2022/07/17 04:51:25;;;;;;;6.78;2.30;;;13.50;99.90;;;;;;5087541;28;20405;-75
2022/07/17 04:53:51;;;;;;;6.13;1.97;;;13.50;99.90;;;;;;5106043;28;20994;-75
2022/07/17 04:56:16;;;;;;;7.00;2.13;;;13.60;99.90;;;;;;5097498;28;20799;-75
2022/07/17 04:58:42;;;;;;;6.28;2.20;;;13.60;99.90;;;;;;5102130;28;20871;-75
2022/07/17 05:01:07;;;;;;;6.70;2.27;;;13.60;99.90;;;;;;5088599;28;20862;-75
2022/07/17 05:03:33;;;;;;;4.47;1.73;;;13.60;99.90;;;;;;5105256;28;20894;-75
2022/07/17 05:05:59;;;;;;;7.37;2.10;;;13.60;99.90;;;;;;5108520;28;20396;-74
2022/07/17 05:08:24;;;;;;;7.13;2.08;;;13.70;99.90;;;;;;5103685;28;20930;-75
2022/07/17 05:10:50;;;;;;;6.83;2.20;;;13.80;99.90;;;;;;5099218;28;20808;-75
2022/07/17 05:13:16;;;;;;;6.13;2.03;;;13.80;99.90;;;;;;5107545;28;20400;-75
2022/07/17 05:15:41;;;;;;;5.78;2.10;;;13.80;99.90;;;;;;5107781;28;20392;-75
2022/07/17 05:18:07;;;;;;;8.05;2.22;;;13.80;99.90;;;;;;5106389;28;20400;-74
2022/07/17 05:20:34;;;;;;;6.27;1.80;;;13.80;99.90;;;;;;5107863;28;20400;-74
2022/07/17 05:22:59;;;;;;;6.85;1.80;;;13.90;99.90;;;;;;5089082;28;20402;-74
2022/07/17 05:25:25;;;;;;;5.00;1.38;;;14.00;99.90;;;;;;5106831;28;20973;-73
2022/07/17 05:27:51;;;;;;;6.63;1.57;;;14.00;99.90;;;;;;5107799;28;20411;-74
2022/07/17 05:30:16;;;;;;;6.93;1.70;;;14.10;99.90;;;;;;5108189;28;20822;-74
2022/07/17 05:32:42;;;;;;;5.18;1.60;;;14.20;99.90;;;;;;5093873;28;20405;-74
2022/07/17 05:35:08;;;;;;;5.40;1.53;;;14.20;99.90;;;;;;5098098;28;20788;-74
2022/07/17 05:37:34;;;;;;;7.15;1.70;;;14.30;99.90;;;;;;5089387;28;20777;-74
2022/07/17 05:39:59;;;;;;;6.27;1.73;;;14.40;99.90;;;;;;5098091;28;20431;-74
2022/07/17 05:42:25;;;;;;;4.80;1.50;;;14.50;99.90;;;;;;5094229;28;20399;-74
2022/07/17 05:44:51;;;;;;;5.70;1.70;;;14.50;99.90;;;;;;5108020;28;20762;-74
2022/07/17 05:47:16;;;;;;;4.88;1.25;;;14.50;99.90;;;;;;5095652;28;20400;-74
2022/07/17 05:49:42;;;;;;;7.83;1.43;;;14.60;99.90;;;;;;5097932;28;20402;-74
2022/07/17 05:52:08;;;;;;;7.07;1.33;;;14.70;99.90;;;;;;5092645;28;20388;-74
2022/07/17 05:54:33;;;;;;;4.43;1.33;;;14.90;99.90;;;;;;5106550;28;20392;-73
2022/07/17 05:57:00;;;;;;;3.15;1.10;;;14.90;99.90;;;;;;5095938;28;20452;-73
2022/07/17 05:59:26;;;;;;;4.27;1.40;;;14.90;99.90;;;;;;5107519;28;20546;-74
2022/07/17 06:01:52;;;;;;;7.45;1.40;;;14.90;99.90;;;;;;5093426;28;20489;-74
2022/07/17 06:04:17;;;;;;;6.00;1.50;;;14.90;99.90;;;;;;5089582;28;20424;-73
2022/07/17 06:06:43;;;;;;;5.72;1.23;;;14.90;99.90;;;;;;5102677;28;20404;-73
2022/07/17 06:09:08;;;;;;;4.57;1.10;;;15.00;99.90;;;;;;5099144;28;20392;-74
2022/07/17 06:11:34;;;;;;;4.53;1.30;;;15.10;99.90;;;;;;5105337;28;20404;-74
2022/07/17 06:14:00;;;;;;;5.73;1.30;;;15.20;99.90;;;;;;5098925;28;20893;-74
2022/07/17 06:16:25;;;;;;;6.38;1.40;;;15.20;99.90;;;;;;5111584;28;20942;-74
2022/07/17 06:18:51;;;;;;;5.53;0.87;;;15.30;99.90;;;;;;5102112;28;20426;-74
2022/07/17 06:21:17;;;;;;;4.50;1.25;;;15.40;99.90;;;;;;5107661;28;20412;-74
2022/07/17 06:23:42;;;;;;;5.13;1.27;;;15.40;99.90;;;;;;5100927;28;20501;-74
2022/07/17 06:26:08;;;;;;;5.17;1.20;;;15.50;99.90;;;;;;5108198;28;20493;-74
2022/07/17 06:28:34;;;;;;;5.28;1.00;;;15.60;99.90;;;;;;5100431;28;20491;-73
2022/07/17 06:30:59;;;;;;;5.60;1.27;;;15.70;99.90;;;;;;5110225;28;20411;-73
2022/07/17 06:33:25;;;;;;;5.22;1.27;;;15.80;99.90;;;;;;5110463;28;20407;-73
2022/07/17 06:35:51;;;;;;;6.17;1.27;;;15.90;99.90;;;;;;5094799;28;20394;-73
2022/07/17 06:38:16;;;;;;;6.10;1.30;;;15.90;99.90;;;;;;5100231;28;20557;-73
2022/07/17 06:40:42;;;;;;;6.17;1.30;;;16.00;99.90;;;;;;5111335;28;20384;-73
2022/07/17 06:43:08;;;;;;;5.50;1.08;;;16.10;99.90;;;;;;5108035;28;20400;-74
2022/07/17 06:45:34;;;;;;;7.70;1.40;;;16.20;99.90;;;;;;5098577;28;20413;-73
2022/07/17 06:48:00;;;;;;;4.23;1.00;;;16.20;99.90;;;;;;5091135;28;20413;-74
2022/07/17 06:50:26;;;;;;;5.22;1.50;;;16.30;99.90;;;;;;5092934;28;20397;-74
2022/07/17 06:52:51;;;;;;;6.28;1.40;;;16.30;99.90;;;;;;5090711;28;20439;-74
2022/07/17 06:55:17;;;;;;;7.00;1.10;;;16.40;99.90;;;;;;5091911;28;20402;-74
2022/07/17 06:57:43;;;;;;;7.00;0.95;;;16.40;99.90;;;;;;5094234;28;20413;-74
2022/07/17 07:00:09;;;;;;;5.97;1.10;;;16.40;99.90;;;;;;5093962;28;20430;-74
2022/07/17 07:02:35;;;;;;;5.93;1.13;;;16.40;99.90;;;;;;5091462;28;20440;-74
2022/07/17 07:05:01;;;;;;;5.63;0.90;;;16.50;99.90;;;;;;5091398;28;20414;-74
2022/07/17 07:07:26;;;;;;;5.65;1.00;;;16.50;99.90;;;;;;5090001;28;20409;-74
2022/07/17 07:09:52;;;;;;;4.23;0.87;;;16.60;99.90;;;;;;5092951;28;20753;-74
2022/07/17 07:12:18;;;;;;;4.93;0.93;;;16.60;99.90;;;;;;5093420;28;20430;-74
2022/07/17 07:14:43;;;;;;;6.35;1.30;;;16.80;99.90;;;;;;5094335;28;20401;-74
2022/07/17 07:17:09;;;;;;;5.73;0.77;;;16.80;99.90;;;;;;5092203;28;20480;-73
2022/07/17 07:19:34;;;;;;;4.70;1.30;;;16.90;99.90;;;;;;5099139;28;20910;-74
2022/07/17 07:22:00;;;;;;;4.50;0.80;;;17.00;99.90;;;;;;5090269;28;20899;-74
2022/07/17 07:24:26;;;;;;;5.00;0.70;;;17.00;99.90;;;;;;5099766;28;20385;-74
2022/07/17 07:26:51;;;;;;;4.50;0.90;;;17.10;99.90;;;;;;5099662;28;20426;-74
2022/07/17 07:29:17;;;;;;;4.32;0.88;;;17.10;99.90;;;;;;5098733;28;20398;-74
2022/07/17 07:31:43;;;;;;;5.60;0.90;;;17.10;99.90;;;;;;5091009;28;20521;-74
2022/07/17 07:34:09;;;;;;;5.43;1.20;;;17.10;99.90;;;;;;5089975;28;20406;-74
2022/07/17 07:36:34;;;;;;;6.33;0.90;;;17.20;99.90;;;;;;5089460;28;20434;-74
2022/07/17 07:39:00;;;;;;;3.63;0.70;;;17.20;99.90;;;;;;5094797;28;20457;-74
2022/07/17 07:41:26;;;;;;;3.83;0.83;;;17.30;99.90;;;;;;5092794;28;20402;-74
2022/07/17 07:43:51;;;;;;;4.10;0.87;;;17.40;99.90;;;;;;5092176;28;20406;-74
2022/07/17 07:46:17;;;;;;;5.63;0.82;;;17.50;99.90;;;;;;5089811;28;20398;-75
2022/07/17 07:48:43;;;;;;;5.23;0.90;;;17.50;99.90;;;;;;5094979;28;20390;-75
2022/07/17 07:51:08;;;;;;;4.18;1.30;;;17.60;99.90;;;;;;5099340;28;20443;-74
2022/07/17 07:53:34;;;;;;;7.20;1.40;;;17.60;99.90;;;;;;5094002;28;20394;-74
2022/07/17 07:56:00;;;;;;;4.88;0.95;;;17.60;99.90;;;;;;5096820;28;20483;-74
2022/07/17 07:58:26;;;;;;;6.30;0.90;;;17.70;99.90;;;;;;5090682;28;20500;-74
2022/07/17 08:00:52;;;;;;;3.78;0.60;;;17.70;99.90;;;;;;5089570;28;20571;-74
2022/07/17 08:03:18;;;;;;;3.70;0.70;;;17.80;99.90;;;;;;5090437;28;21109;-74
2022/07/17 08:05:43;;;;;;;6.10;0.93;;;17.90;99.90;;;;;;5093083;28;20398;-74
2022/07/17 08:08:09;;;;;;;4.32;0.77;;;17.90;99.90;;;;;;5092255;28;20397;-74
2022/07/17 08:10:35;;;;;;;5.37;0.70;;;17.90;99.90;;;;;;5093209;28;20425;-74
2022/07/17 08:13:01;;;;;;;5.68;0.73;;;17.90;99.90;;;;;;5090669;28;20405;-74
2022/07/17 08:15:26;;;;;;;3.92;0.63;;;17.90;99.90;;;;;;5098413;28;20396;-74
2022/07/17 08:17:53;;;;;;;3.85;0.80;;;17.90;99.90;;;;;;5088927;28;21024;-74
2022/07/17 08:20:20;;;;;;;3.25;0.70;;;17.90;99.90;;;;;;5095459;28;20448;-74
2022/07/17 08:22:46;;;;;;;4.45;0.80;;;17.90;99.90;;;;;;5091201;28;20499;-74
2022/07/17 08:25:12;;;;;;;4.50;0.77;;;18.00;99.90;;;;;;5093976;28;20396;-74
2022/07/17 08:27:40;;;;;;;4.57;0.70;;;18.10;99.90;;;;;;5092548;28;20646;-74
2022/07/17 08:30:08;;;;;;;4.65;0.60;;;18.10;99.90;;;;;;5089658;28;20434;-74
2022/07/17 08:32:35;;;;;;;5.28;0.90;;;18.20;99.90;;;;;;5089002;28;20497;-74
2022/07/17 08:35:00;;;;;;;5.07;1.10;;;18.20;99.90;;;;;;5091282;28;20764;-75
2022/07/17 08:37:27;;;;;;;3.87;0.80;;;18.40;99.90;;;;;;5108749;28;20396;-74
2022/07/17 08:39:52;;;;;;;3.13;0.70;;;18.40;99.90;;;;;;5090558;28;20924;-74
2022/07/17 08:42:18;;;;;;;3.58;0.63;;;18.50;99.90;;;;;;5098609;28;20408;-76
2022/07/17 08:44:44;;;;;;;5.67;0.60;;;18.60;99.90;;;;;;5096209;28;20437;-76
2022/07/17 08:47:11;;;;;;;3.53;0.67;;;18.60;99.90;;;;;;5097938;28;20405;-76
2022/07/17 08:49:44;;;;;;;4.43;0.73;;;18.60;99.90;;;;;;5092947;28;20410;-76
2022/07/17 08:52:13;;;;;;;4.10;0.70;;;18.50;99.90;;;;;;5095331;28;20404;-76
2022/07/17 08:54:39;;;;;;;4.45;0.75;;;18.60;99.90;;;;;;5088613;28;20394;-75
2022/07/17 08:57:06;;;;;;;5.90;0.98;;;18.60;99.90;;;;;;5088247;28;20416;-75
2022/07/17 08:59:32;;;;;;;3.78;0.60;;;18.70;99.90;;;;;;5096583;28;20433;-75
2022/07/17 09:02:01;;;;;;;4.90;0.80;;;18.90;99.90;;;;;;5092696;28;20406;-75
2022/07/17 09:04:27;;;;;;;3.55;0.60;;;18.90;99.90;;;;;;5090609;28;20406;-75
2022/07/17 09:07:01;;;;;;;6.03;1.03;;;19.00;99.90;;;;;;5095510;28;20392;-75
2022/07/17 09:09:28;;;;;;;4.63;0.70;;;19.10;99.90;;;;;;5096232;28;20436;-75
2022/07/17 09:11:55;;;;;;;4.50;0.88;;;19.20;99.90;;;;;;5102574;28;20402;-74
2022/07/17 09:14:22;;;;;;;4.85;0.90;;;19.30;99.90;;;;;;5097326;28;20416;-74
2022/07/17 09:17:01;;;;;;;4.80;0.85;;;19.40;99.90;;;;;;5103769;28;20499;-75
2022/07/17 09:19:30;;;;;;;3.88;0.82;;;19.60;99.90;;;;;;5100694;28;20437;-74
2022/07/17 09:22:08;;;;;;;4.18;0.77;;;19.60;99.90;;;;;;5099541;28;20417;-75
2022/07/17 09:24:47;;;;;;;4.57;1.00;;;19.70;99.90;;;;;;5104304;28;20420;-75
2022/07/17 09:27:18;;;;;;;6.35;0.70;;;19.70;99.90;;;;;;5105632;28;20544;-75
2022/07/17 09:30:05;;;;;;;4.35;0.80;;;19.90;99.40;;;;;;5095049;28;20420;-76
2022/07/17 09:32:34;;;;;;;5.75;0.80;;;20.10;99.90;;;;;;5095860;28;20424;-75
2022/07/17 09:35:01;;;;;;;4.25;1.00;;;20.30;99.30;;;;;;5096566;28;20406;-76
2022/07/17 09:37:29;;;;;;;3.10;0.75;;;20.50;99.00;;;;;;5102100;28;20808;-76
2022/07/17 09:39:55;;;;;;;5.03;0.80;;;20.90;98.90;;;;;;5094849;28;20966;-74
2022/07/17 09:42:23;;;;;;;3.13;0.60;;;21.20;97.80;;;;;;5105399;28;20460;-74
2022/07/17 09:45:03;;;;;;;3.80;0.60;;;21.50;97.70;;;;;;5102686;28;20427;-74
2022/07/17 09:47:31;;;;;;;5.65;0.80;;;21.80;97.10;;;;;;5095428;28;20423;-74
2022/07/17 09:49:58;;;;;;;3.35;0.70;;;22.20;96.80;;;;;;5098512;28;20042;-74
2022/07/17 09:52:29;;;;;;;4.68;0.60;;;22.50;96.20;;;;;;5098610;28;20501;-74
2022/07/17 09:54:55;;;;;;;1.98;0.50;;;22.80;95.20;;;;;;5106178;28;20068;-74
2022/07/17 09:57:29;;;;;;;2.17;0.40;;;23.00;95.20;;;;;;5104814;28;20044;-73
2022/07/17 10:00:01;;;;;;;3.25;0.40;;;23.30;94.80;;;;;;5117878;27;20321;-75
2022/07/17 10:02:26;;;;;;;4.60;0.60;;;23.60;94.10;;;;;;5093370;28;20097;-75
2022/07/17 10:04:53;;;;;;;5.07;0.70;;;23.80;93.10;;;;;;5117118;27;20447;-75
2022/07/17 10:07:20;;;;;;;1.20;0.43;;;24.10;92.80;;;;;;5122553;28;20118;-74
2022/07/17 10:09:46;;;;;;;4.10;0.60;;;24.10;91.80;;;;;;5123548;28;20076;-74
2022/07/17 10:12:13;;;;;;;7.35;0.75;;;24.10;91.80;;;;;;5105781;28;20039;-73
2022/07/17 10:14:41;;;;;;;5.03;0.70;;;24.00;91.50;;;;;;5127522;28;20074;-74
2022/07/17 10:17:11;;;;;;;4.13;0.88;;;24.10;91.50;;;;;;5129270;28;20078;-73
2022/07/17 10:19:46;;;;;;;2.00;0.30;;;24.10;91.90;;;;;;5129824;27;20151;-74
2022/07/17 10:22:12;;;;;;;2.22;0.70;;;24.20;90.80;;;;;;5116498;28;20142;-74
2022/07/17 10:25:05;;;;;;;4.65;0.55;;;24.50;90.70;;;;;;5122649;28;20512;-74
2022/07/17 10:27:31;;;;;;;3.28;0.40;;;24.80;90.20;;;;;;5122203;27;20054;-75
2022/07/17 10:30:10;;;;;;;2.28;0.45;;;25.10;88.30;;;;;;5122500;27;20043;-75
2022/07/17 10:32:37;;;;;;;2.78;0.50;;;25.20;87.00;;;;;;5129891;28;20047;-75
2022/07/17 10:35:03;;;;;;;;;;;25.30;86.70;;;;;;5123756;28;20039;-74
2022/07/17 10:37:32;;;;;;;;;;;25.20;86.90;;;;;;5129447;28;20381;-75
2022/07/17 10:40:24;;;;;;;2.22;0.50;;;25.10;85.50;;;;;;5122561;27;19931;-74
2022/07/17 10:42:54;;;;;;;2.40;0.70;;;25.10;85.80;;;;;;5126798;28;20044;-74
2022/07/17 10:45:21;;;;;;;3.67;0.63;;;25.20;86.40;;;;;;5127826;27;20406;-74
2022/07/17 10:47:53;;;;;;;1.48;0.40;;;25.20;85.60;;;;;;5117115;27;20035;-74
2022/07/17 10:50:20;;;;;;;;;;;25.30;84.50;;;;;;5102308;28;20433;-73
2022/07/17 10:52:56;;;;;;;;;;;25.30;83.10;;;;;;5106306;28;19920;-74
2022/07/17 10:55:23;;;;;;;3.83;0.57;;;25.20;83.70;;;;;;5121527;28;19919;-74
2022/07/17 10:57:49;;;;;;;4.32;0.60;;;25.40;83.80;;;;;;5122323;27;20047;-74
2022/07/17 11:00:16;;;;;;;2.45;0.57;;;25.70;84.80;;;;;;5129176;27;20051;-74
2022/07/17 11:02:43;;;;;;;1.98;0.40;;;26.00;81.90;;;;;;5132032;27;20054;-74
2022/07/17 11:05:10;;;;;;;2.05;0.57;;;26.20;83.00;;;;;;5114656;27;20055;-74
2022/07/17 11:07:36;;;;;;;1.75;0.50;;;26.60;82.10;;;;;;5119547;27;20132;-74
2022/07/17 11:10:02;;;;;;;1.52;0.40;;;26.90;82.30;;;;;;5112654;27;20070;-74
2022/07/17 11:12:34;;;;;;;3.33;0.40;;;27.10;81.70;;;;;;5125510;27;20120;-74
2022/07/17 11:15:04;;;;;;;2.20;0.50;;;27.40;79.20;;;;;;5125080;27;20413;-74
2022/07/17 11:17:29;;;;;;;2.90;0.88;;;27.50;77.70;;;;;;5125694;27;20054;-74
2022/07/17 11:19:57;;;;;;;;;;;27.30;76.80;;;;;;5102554;27;20047;-74
2022/07/17 11:22:29;;;;;;;;;;;26.90;75.90;;;;;;5119246;27;20349;-74
2022/07/17 11:24:55;;;;;;;3.58;0.75;;;26.60;76.00;;;;;;5132764;27;19927;-75
2022/07/17 11:27:29;;;;;;;2.50;0.60;;;26.70;74.80;;;;;;5113374;27;20386;-74
2022/07/17 11:29:59;;;;;;;3.30;0.68;;;26.90;76.40;;;;;;5132383;27;20394;-74
2022/07/17 11:32:35;;;;;;;3.05;0.50;;;27.20;75.30;;;;;;5114075;27;20050;-74
2022/07/17 11:35:00;;;;;;;1.77;0.30;;;27.40;76.10;;;;;;5132103;27;20409;-73
2022/07/17 11:37:30;;;;;;;2.72;0.60;;;27.50;74.60;;;;;;5131523;27;20039;-74
2022/07/17 11:39:56;;;;;;;2.55;0.50;;;27.60;74.40;;;;;;5131443;27;20615;-74
2022/07/17 11:42:23;;;;;;;2.67;0.55;;;27.70;74.00;;;;;;5132505;27;20038;-74
2022/07/17 11:44:55;;;;;;;2.75;0.60;;;27.90;73.90;;;;;;5119152;27;20058;-73
2022/07/17 11:47:23;;;;;;;3.37;0.70;;;28.10;73.70;;;;;;5120836;27;20043;-74
2022/07/17 11:49:49;;;;;;;3.22;0.70;;;28.20;72.60;;;;;;5130515;27;20047;-75
2022/07/17 11:52:20;;;;;;;1.98;0.40;;;28.20;71.10;;;;;;5132528;27;20039;-74
2022/07/17 11:54:54;;;;;;;1.90;0.50;;;28.30;70.30;;;;;;5128956;27;20581;-74
2022/07/17 11:57:20;;;;;;;2.25;0.57;;;28.60;70.30;;;;;;5132351;27;20035;-75
2022/07/17 11:59:46;;;;;;;1.55;0.50;;;28.70;70.60;;;;;;5129989;27;20618;-75
2022/07/17 12:02:21;;;;;;;3.35;0.70;;;28.70;68.50;;;;;;5123290;27;20040;-74
2022/07/17 12:04:50;;;;;;;3.08;0.40;;;28.80;69.00;;;;;;5128864;27;20082;-74
2022/07/17 12:07:16;;;;;;;2.50;0.50;;;28.90;68.50;;;;;;5121135;27;20132;-74
2022/07/17 12:09:42;;;;;;;2.90;0.40;;;29.00;68.10;;;;;;5129371;27;20114;-74
2022/07/17 12:12:25;;;;;;;2.03;0.50;;;29.10;67.50;;;;;;5120506;27;20424;-74
2022/07/17 12:15:00;;;;;;;3.70;0.50;;;29.10;66.10;;;;;;5131900;27;20047;-74
2022/07/17 12:17:38;;;;;;;5.38;0.98;;;29.20;67.00;;;;;;5118223;27;20048;-74
2022/07/17 12:20:05;;;;;;;4.75;0.65;;;29.20;66.40;;;;;;5131257;27;20039;-74
2022/07/17 12:22:41;;;;;;;2.05;0.50;;;29.30;66.00;;;;;;5131950;27;20039;-75
2022/07/17 12:25:07;;;;;;;1.83;0.63;;;29.30;63.80;;;;;;5132052;27;20047;-74
2022/07/17 12:27:33;;;;;;;2.83;0.60;;;29.40;65.10;;;;;;5118061;27;20035;-74
2022/07/17 12:29:58;;;;;;;2.10;0.50;;;29.50;64.40;;;;;;5120361;27;20032;-74
2022/07/17 12:32:24;;;;;;;2.65;0.50;;;29.30;64.20;;;;;;5129047;27;20523;-75
2022/07/17 12:35:45;;;;;;;2.90;0.52;;;29.20;63.80;;;;;;5082884;28;20409;-73
2022/07/17 12:38:11;;;;;;;3.78;0.60;;;29.10;61.40;;;;;;5086522;28;20045;-72
2022/07/17 12:40:36;;;;;;;2.67;0.50;;;28.90;63.70;;;;;;5065897;28;20368;-73
2022/07/17 12:43:02;;;;;;;1.73;0.32;;;28.90;64.20;;;;;;5065125;28;20049;-73
2022/07/17 12:45:28;;;;;;;2.08;0.75;;;29.00;63.70;;;;;;5065485;28;20068;-73
2022/07/17 12:47:53;;;;;;;3.30;0.60;;;29.10;64.60;;;;;;5066450;28;20037;-74